Aviation Digital Data Service (ADDS)

Output produced by METARs form (0826 UTC 17 November 2018)
found at http://www.aviationweather.gov/metar/data/
 
TAF MWCR 162300Z 1700/1724 06012KT 9999 VCSH FEW018